Adventureland Estates, Iowa
Current Conditions -  °F | °C
As of 10:15 AM on Wednesday 26 Nov 2014 (Local Time) from KIKV Reporting Station
Unknown Precip Unknown Precip  
Wind Chill: 20°   Ceiling: 1400
Heat Index: 28°   Visibility: 2.5mi
Dew Point: 27°   Wind: 9mph
Humidity: 93%   Direction: 80°E
Pressure: 29.95"   Gusts: NA
Location:  41.6405°N, 93.4586°W
Report Text: KIKV 261615Z AUTO 08008KT 2 1/2SM -UP FEW009 OVC014 M02/M03 A2995 RMK AO2
Loading
Personal Weather Stations






























Interactive Weather Map New forecast layout! Learn more

10-Day Weather Forecast

Advertisements
Track Severe Weather on mobile